Time;durP1;ratioP1;P1;durP2;ratioP2;P2;SDS_P1;SDS_P2;PMS_P1;PMS_P2;Temp;Humidity;BMP_temperature;BMP_pressure;BME280_temperature;BME280_humidity;BME280_pressure;Samples;Min_cycle;Max_cycle;Signal;HPM_P1;HPM_P2
2023/02/19 00:01:48;;;;;;;12.30;5.87;;;;;;;2.46;88.25;99694.67;1751376;81;27520;-47
2023/02/19 00:04:20;;;;;;;14.98;6.72;;;;;;;2.42;88.19;99693.87;1726904;81;25616;-47
2023/02/19 00:06:48;;;;;;;7.17;4.67;;;;;;;2.39;88.15;99699.73;1751571;81;25597;-47
2023/02/19 00:09:19;;;;;;;10.63;5.30;;;;;;;2.37;88.14;99689.88;1754918;81;25385;-48
2023/02/19 00:11:47;;;;;;;11.08;5.47;;;;;;;2.35;88.30;99688.52;1751588;81;25448;-49
2023/02/19 00:14:20;;;;;;;11.43;5.47;;;;;;;2.32;88.21;99693.88;1754967;81;27251;-48
2023/02/19 00:16:48;;;;;;;9.43;5.72;;;;;;;2.31;88.18;99687.47;1751431;81;25424;-48
2023/02/19 00:19:23;;;;;;;9.50;5.17;;;;;;;2.29;88.17;99678.40;1755090;81;25434;-46
2023/02/19 00:21:54;;;;;;;10.05;5.03;;;;;;;2.28;88.10;99678.12;1751471;81;25474;-45
2023/02/19 00:24:21;;;;;;;8.75;4.78;;;;;;;2.24;88.09;99677.86;1755110;81;25457;-47
2023/02/19 00:26:48;;;;;;;7.25;4.53;;;;;;;2.22;88.18;99680.55;1751501;81;27527;-45
2023/02/19 00:29:20;;;;;;;7.45;3.98;;;;;;;2.19;88.15;99676.53;1754867;81;25637;-46
2023/02/19 00:31:48;;;;;;;9.50;4.42;;;;;;;2.17;88.20;99668.00;1751532;81;25565;-48
2023/02/19 00:34:15;;;;;;;12.23;4.62;;;;;;;2.17;88.11;99674.67;1754888;81;25399;-47
2023/02/19 00:36:43;;;;;;;10.80;4.85;;;;;;;2.17;88.22;99677.34;1751456;81;25614;-46
2023/02/19 00:39:17;;;;;;;11.00;4.00;;;;;;;2.18;88.16;99680.28;1755314;81;27521;-47
2023/02/19 00:41:45;;;;;;;7.95;4.10;;;;;;;2.17;88.11;99669.88;1751418;81;25603;-46
2023/02/19 00:44:14;;;;;;;8.38;3.80;;;;;;;2.14;87.97;99664.52;1754944;81;25413;-47
2023/02/19 00:46:47;;;;;;;9.70;4.45;;;;;;;2.15;87.93;99662.14;1751392;81;25878;-46
2023/02/19 00:49:21;;;;;;;8.78;3.95;;;;;;;2.15;87.91;99660.02;1755017;81;25399;-46
2023/02/19 00:51:51;;;;;;;7.95;4.17;;;;;;;2.14;87.82;99657.86;1751510;81;27567;-47
2023/02/19 00:54:21;;;;;;;10.95;3.98;;;;;;;2.13;87.65;99660.28;1754924;81;25455;-48
2023/02/19 00:56:50;;;;;;;9.45;3.80;;;;;;;2.14;87.65;99661.06;1751586;81;25445;-47
2023/02/19 00:59:18;;;;;;;6.47;2.83;;;;;;;2.16;87.66;99670.93;1755205;81;25942;-48
2023/02/19 01:01:44;;;;;;;8.05;3.37;;;;;;;2.15;87.54;99663.47;1751432;81;25631;-47
2023/02/19 01:04:12;;;;;;;10.95;3.52;;;;;;;2.12;87.49;99657.33;1754880;81;29421;-48
2023/02/19 01:06:38;;;;;;;7.28;3.08;;;;;;;2.16;87.40;99670.93;1751332;81;25554;-47
2023/02/19 01:09:06;;;;;;;7.10;3.15;;;;;;;2.17;87.43;99670.66;1754868;81;25583;-46
2023/02/19 01:11:35;;;;;;;6.05;3.37;;;;;;;2.17;87.39;99667.20;1751398;81;25550;-46
2023/02/19 01:14:04;;;;;;;4.92;3.15;;;;;;;2.19;87.33;99662.39;1754933;81;25622;-47
2023/02/19 01:16:32;;;;;;;5.50;3.37;;;;;;;2.20;87.14;99670.14;1751507;81;27341;-46
2023/02/19 01:19:00;;;;;;;9.65;3.70;;;;;;;2.20;87.03;99670.14;1752028;81;25637;-46
2023/02/19 01:21:30;;;;;;;6.35;3.37;;;;;;;2.23;86.97;99666.12;1726926;83;25469;-46
2023/02/19 01:23:58;;;;;;;10.43;3.55;;;;;;;2.24;87.00;99667.19;1737919;82;25472;-46
2023/02/19 01:26:30;;;;;;;8.30;3.67;;;;;;;2.24;86.82;99668.52;1726984;83;25587;-47
2023/02/19 01:28:59;;;;;;;9.33;3.10;;;;;;;2.23;86.60;99664.27;1737933;82;27343;-49
2023/02/19 01:31:28;;;;;;;5.80;2.92;;;;;;;2.25;86.47;99661.34;1727033;83;25638;-46
2023/02/19 01:33:59;;;;;;;6.80;2.87;;;;;;;2.25;86.49;99664.00;1714839;82;25473;-46
2023/02/19 01:36:28;;;;;;;11.78;3.22;;;;;;;2.27;86.43;99659.73;1726931;83;25477;-48
2023/02/19 01:38:58;;;;;;;;;;;;;;;2.27;86.36;99667.20;1740553;82;25417;-47
2023/02/19 01:41:26;;;;;;;;;;;;;;;2.30;86.33;99656.50;1759695;81;27909;-47
2023/02/19 01:44:06;;;;;;;7.33;2.60;;;;;;;2.29;86.09;99665.59;1737843;82;25477;-47
2023/02/19 01:46:37;;;;;;;7.55;3.08;;;;;;;2.30;86.17;99665.84;1726991;83;25405;-47
2023/02/19 01:49:24;;;;;;;6.17;3.12;;;;;;;2.29;85.97;99662.38;1737976;82;26103;-47
2023/02/19 01:51:56;;;;;;;7.92;2.70;;;;;;;2.30;86.01;99661.33;1726972;83;25437;-50
2023/02/19 01:54:28;;;;;;;4.03;2.67;;;;;;;2.31;85.84;99664.79;1720903;82;28259;-48
2023/02/19 01:56:56;;;;;;;10.32;2.83;;;;;;;2.32;85.81;99663.19;1726908;83;25453;-48
2023/02/19 01:59:24;;;;;;;7.05;3.00;;;;;;;2.32;85.59;99663.19;1737924;82;25481;-49
2023/02/19 02:01:53;;;;;;;6.85;3.33;;;;;;;2.35;85.34;99664.50;1726900;83;25409;-48
2023/02/19 02:04:20;;;;;;;5.87;3.33;;;;;;;2.34;85.32;99658.92;1738011;82;25572;-49
2023/02/19 02:07:01;;;;;;;10.38;3.25;;;;;;;2.34;85.38;99650.91;1726884;83;29604;-47
2023/02/19 02:12:15;;;;;;;6.37;3.92;;;;;;;2.35;85.20;99655.16;1726936;83;25478;-47
2023/02/19 02:14:46;;;;;;;6.53;3.15;;;;;;;2.36;84.94;99659.44;1737788;82;25474;-46
2023/02/19 02:17:50;;;;;;;8.55;3.62;;;;;;;2.35;84.96;99659.98;1726936;83;25394;-47
2023/02/19 02:20:48;;;;;;;12.47;3.95;;;;;;;2.36;85.01;99659.44;1737764;82;27308;-46
2023/02/19 02:23:55;;;;;;;7.73;2.87;;;;;;;2.36;84.81;99659.44;1727132;83;25460;-46
2023/02/19 02:26:46;;;;;;;8.25;3.17;;;;;;;2.37;84.96;99665.06;1738014;82;25636;-46
2023/02/19 02:29:28;;;;;;;12.68;3.95;;;;;;;2.35;84.91;99657.31;1726739;83;25431;-47
2023/02/19 02:32:12;;;;;;;5.40;3.02;;;;;;;2.36;84.90;99655.44;1681519;85;25700;-47
2023/02/19 02:35:00;;;;;;;7.90;2.85;;;;;;;2.35;84.83;99664.50;1737970;82;27520;-47
2023/02/19 02:37:32;;;;;;;5.35;3.27;;;;;;;2.34;84.92;99663.71;1725203;83;25620;-46
2023/02/19 02:40:01;;;;;;;8.10;2.95;;;;;;;2.34;85.06;99662.38;1737862;82;25433;-48
2023/02/19 02:42:28;;;;;;;9.83;4.37;;;;;;;2.33;84.90;99663.44;1726990;83;25914;-47
2023/02/19 02:47:54;;;;;;;7.55;4.03;;;;;;;2.33;84.99;99671.44;1726943;83;27358;-47
2023/02/19 02:50:35;;;;;;;9.25;3.90;;;;;;;2.33;85.05;99667.98;1737813;82;25638;-47
2023/02/19 02:55:54;;;;;;;9.08;3.85;;;;;;;2.33;85.32;99662.64;1737849;82;25638;-46
2023/02/19 02:58:24;;;;;;;;;;;;;;;2.32;85.32;99668.52;1729510;83;25489;-46
2023/02/19 03:03:44;;;;;;;12.47;4.30;;;;;;;2.32;85.54;99671.19;1737784;82;25573;-47
2023/02/19 03:06:16;;;;;;;11.15;4.35;;;;;;;2.32;85.74;99663.73;1726871;83;25531;-47
2023/02/19 03:08:59;;;;;;;10.28;3.95;;;;;;;2.31;85.84;99660.78;1738006;82;25391;-47
2023/02/19 03:19:55;;;;;;;11.73;4.15;;;;;;;2.31;86.22;99661.58;1600790;89;25989;-47
2023/02/19 03:22:27;;;;;;;8.83;4.42;;;;;;;2.30;86.34;99654.66;1782789;80;25546;-47
2023/02/19 03:28:01;;;;;;;6.08;3.35;;;;;;;2.29;86.44;99661.05;1754864;81;27363;-46
2023/02/19 03:30:33;;;;;;;9.05;3.55;;;;;;;2.30;86.59;99664.51;1751319;81;25409;-46
2023/02/19 03:33:07;;;;;;;10.72;4.67;;;;;;;2.27;86.59;99663.73;1754792;81;25562;-47
2023/02/19 03:35:39;;;;;;;9.48;4.08;;;;;;;2.26;86.78;99654.91;1749926;82;25646;-47
2023/02/19 03:38:17;;;;;;;10.28;4.08;;;;;;;2.24;86.66;99660.52;1754703;81;25551;-47
2023/02/19 03:40:50;;;;;;;10.45;4.87;;;;;;;2.23;86.83;99652.77;1751293;81;27345;-46
2023/02/19 03:43:22;;;;;;;11.30;5.17;;;;;;;2.23;86.71;99659.45;1735359;81;25437;-46
2023/02/19 03:46:06;;;;;;;8.23;3.83;;;;;;;2.22;87.00;99653.86;1749779;81;25563;-46
2023/02/19 03:48:40;;;;;;;7.35;3.30;;;;;;;2.21;86.94;99660.25;1754329;81;25389;-46
2023/02/19 03:51:43;;;;;;;11.00;3.52;;;;;;;2.18;86.84;99653.59;1723381;81;25780;-46
2023/02/19 03:54:24;;;;;;;9.58;3.60;;;;;;;2.18;86.91;99652.78;1755005;81;27332;-46
2023/02/19 03:57:14;;;;;;;8.23;3.52;;;;;;;2.17;87.00;99647.20;1750187;81;25539;-46
2023/02/19 03:59:55;;;;;;;4.72;3.12;;;;;;;2.14;86.83;99647.19;1753498;81;25574;-47
2023/02/19 04:02:36;;;;;;;7.65;3.60;;;;;;;2.13;86.94;99640.27;1751606;81;25615;-47
2023/02/19 04:05:20;;;;;;;6.37;2.87;;;;;;;2.12;86.79;99643.20;1754003;81;25675;-47
2023/02/19 04:07:51;;;;;;;8.80;3.45;;;;;;;2.11;86.82;99642.92;1751526;81;27969;-46
2023/02/19 04:10:20;;;;;;;5.45;2.98;;;;;;;2.11;86.70;99646.92;1754919;81;25597;-47
2023/02/19 04:13:01;;;;;;;5.80;3.15;;;;;;;2.06;86.52;99637.08;1751645;81;25508;-47
2023/02/19 04:15:31;;;;;;;5.90;3.37;;;;;;;2.02;86.42;99644.00;1754942;81;25617;-46
2023/02/19 04:18:08;;;;;;;9.60;3.95;;;;;;;1.97;86.47;99638.13;1751581;81;25646;-47
2023/02/19 04:20:40;;;;;;;9.08;3.77;;;;;;;1.93;86.45;99641.07;1747804;81;27906;-49
2023/02/19 04:23:08;;;;;;;5.58;2.42;;;;;;;1.88;86.47;99642.41;1726917;83;25395;-49
2023/02/19 04:25:39;;;;;;;8.55;3.08;;;;;;;1.86;86.46;99641.88;1737962;82;25401;-50
2023/02/19 04:28:08;;;;;;;8.35;3.02;;;;;;;1.81;86.57;99633.34;1726995;83;25479;-49
2023/02/19 04:30:34;;;;;;;10.70;2.85;;;;;;;1.78;86.53;99633.86;1738089;82;25587;-47
2023/02/19 04:33:02;;;;;;;3.85;2.45;;;;;;;1.75;86.42;99619.72;1727059;83;27422;-46
2023/02/19 04:35:28;;;;;;;5.72;2.67;;;;;;;1.72;86.54;99617.61;1737797;82;25553;-47
2023/02/19 04:37:56;;;;;;;8.50;3.10;;;;;;;1.71;86.48;99619.21;1726988;83;25603;-46
2023/02/19 04:40:22;;;;;;;6.72;3.00;;;;;;;1.67;86.52;99612.28;1737990;82;25489;-46
2023/02/19 04:42:48;;;;;;;6.15;2.67;;;;;;;1.65;86.55;99616.55;1726945;83;25571;-46
2023/02/19 04:45:17;;;;;;;6.55;2.37;;;;;;;1.60;86.53;99602.39;1737943;82;27330;-46
2023/02/19 04:47:43;;;;;;;10.68;2.95;;;;;;;1.58;86.64;99609.31;1726866;83;25623;-46
2023/02/19 04:50:09;;;;;;;8.93;3.20;;;;;;;1.55;86.80;99611.72;1737895;82;25438;-46
2023/02/19 04:52:36;;;;;;;8.45;2.72;;;;;;;1.53;86.71;99605.86;1726837;83;25449;-46
2023/02/19 04:55:07;;;;;;;5.37;2.47;;;;;;;1.48;86.88;99607.47;1737950;82;25571;-46
2023/02/19 04:57:35;;;;;;;9.38;4.08;;;;;;;1.46;86.84;99612.78;1727125;83;27907;-45
2023/02/19 05:00:04;;;;;;;5.25;2.85;;;;;;;1.42;86.91;99619.17;1737803;82;27134;-46
2023/02/19 05:02:30;;;;;;;13.35;3.87;;;;;;;1.40;86.92;99627.18;1727123;83;25663;-47
2023/02/19 05:04:57;;;;;;;6.50;2.92;;;;;;;1.39;86.87;99624.23;1737919;82;25969;-46
2023/02/19 05:07:23;;;;;;;11.75;4.15;;;;;;;1.37;86.95;99623.16;1727002;83;25542;-46
2023/02/19 05:09:49;;;;;;;6.67;3.35;;;;;;;1.35;87.08;99617.30;1737864;82;27431;-45
2023/02/19 05:12:15;;;;;;;6.15;2.45;;;;;;;1.34;87.05;99612.23;1726803;83;25641;-46
2023/02/19 05:14:41;;;;;;;9.77;3.30;;;;;;;1.34;87.24;99617.56;1737901;82;28511;-46
2023/02/19 05:17:09;;;;;;;5.45;2.55;;;;;;;1.32;87.28;99613.83;1726821;83;25611;-45
2023/02/19 05:19:35;;;;;;;6.20;2.65;;;;;;;1.32;87.26;99613.83;1737885;82;25589;-46
2023/02/19 05:22:02;;;;;;;7.50;3.20;;;;;;;1.30;87.10;99618.09;1722563;81;28342;-45
2023/02/19 05:24:28;;;;;;;8.23;3.33;;;;;;;1.29;87.36;99620.50;1723468;83;25631;-46
2023/02/19 05:26:56;;;;;;;8.28;3.72;;;;;;;1.28;87.32;99607.44;1751933;81;25372;-47
2023/02/19 05:29:24;;;;;;;7.42;3.45;;;;;;;1.29;87.42;99607.69;1751884;81;25533;-46
2023/02/19 05:31:50;;;;;;;6.20;2.50;;;;;;;1.29;87.44;99600.52;1751999;81;25610;-46
2023/02/19 05:34:18;;;;;;;10.82;3.80;;;;;;;1.29;87.46;99599.19;1751953;81;27364;-46
2023/02/19 05:36:44;;;;;;;4.33;2.40;;;;;;;1.31;87.42;99602.89;1751786;81;27099;-47
2023/02/19 05:39:12;;;;;;;7.08;2.85;;;;;;;1.32;87.57;99603.72;1751886;81;25595;-47
2023/02/19 05:41:38;;;;;;;3.85;2.65;;;;;;;1.32;87.62;99599.72;1751874;81;25684;-48
2023/02/19 05:44:08;;;;;;;10.38;3.22;;;;;;;1.34;87.68;99602.37;1751896;81;25559;-47
2023/02/19 05:46:35;;;;;;;9.88;4.22;;;;;;;1.36;87.81;99604.77;1723546;83;27897;-48
2023/02/19 05:49:03;;;;;;;10.90;3.87;;;;;;;1.36;87.84;99600.23;1751810;81;25544;-46
2023/02/19 05:51:29;;;;;;;7.65;3.55;;;;;;;1.38;87.94;99589.31;1723617;83;25550;-47
2023/02/19 05:53:57;;;;;;;8.68;3.42;;;;;;;1.40;87.94;99599.20;1751829;81;27865;-46
2023/02/19 05:56:32;;;;;;;8.03;3.40;;;;;;;1.39;87.84;99596.25;1723526;83;25465;-46
2023/02/19 05:59:06;;;;;;;12.55;4.80;;;;;;;1.40;87.88;99592.54;1751949;81;27208;-46
2023/02/19 06:01:35;;;;;;;9.15;3.27;;;;;;;1.39;87.87;99589.59;1750069;81;25802;-46
2023/02/19 06:04:01;;;;;;;11.60;3.70;;;;;;;1.40;87.93;99595.20;1751884;81;25381;-47
2023/02/19 06:06:28;;;;;;;10.38;4.05;;;;;;;1.40;87.92;99601.32;1751818;81;25839;-46
2023/02/19 06:08:56;;;;;;;7.15;3.83;;;;;;;1.42;87.96;99602.39;1751878;81;25622;-47
2023/02/19 06:11:25;;;;;;;10.98;4.22;;;;;;;1.41;88.05;99602.11;1751859;81;27358;-47
2023/02/19 06:13:51;;;;;;;10.48;4.47;;;;;;;1.42;88.20;99597.86;1751763;81;25560;-46
2023/02/19 06:16:20;;;;;;;9.78;4.97;;;;;;;1.42;88.28;99593.06;1723417;83;25445;-47
2023/02/19 06:18:48;;;;;;;;;;;;;;;1.46;88.35;99599.45;1754498;81;26375;-46
2023/02/19 06:21:17;;;;;;;12.28;5.35;;;;;;;1.47;88.40;99590.41;1750879;81;25387;-48
2023/02/19 06:23:46;;;;;;;16.48;5.80;;;;;;;1.48;88.43;99589.32;1749896;82;27948;-47
2023/02/19 06:26:20;;;;;;;11.85;5.58;;;;;;;1.49;88.57;99595.72;1749622;82;25524;-46
2023/02/19 06:28:50;;;;;;;11.30;5.35;;;;;;;1.52;88.62;99602.94;1764775;81;25611;-46
2023/02/19 06:31:20;;;;;;;16.35;7.95;;;;;;;1.53;88.58;99595.20;1749733;82;25727;-46
2023/02/19 06:33:49;;;;;;;13.13;6.17;;;;;;;1.55;88.65;99600.55;1764858;81;25569;-46
2023/02/19 06:36:20;;;;;;;11.00;5.85;;;;;;;1.56;88.65;99606.13;1749889;81;27317;-46
2023/02/19 06:38:48;;;;;;;12.95;5.92;;;;;;;1.59;88.68;99606.14;1764760;81;25583;-49
2023/02/19 06:41:16;;;;;;;14.60;6.53;;;;;;;1.60;88.65;99604.55;1749735;81;25570;-46
2023/02/19 06:43:47;;;;;;;15.70;7.70;;;;;;;1.63;88.80;99605.86;1764775;81;25772;-47
2023/02/19 06:46:14;;;;;;;12.58;6.42;;;;;;;1.65;88.76;99605.06;1749753;82;25485;-47
2023/02/19 06:48:43;;;;;;;10.38;5.12;;;;;;;1.68;88.83;99601.32;1764784;81;27388;-48
2023/02/19 06:51:17;;;;;;;15.40;7.70;;;;;;;1.72;88.98;99595.47;1749832;82;25384;-46
2023/02/19 06:53:45;;;;;;;19.75;9.73;;;;;;;1.76;88.90;99604.00;1764833;81;25452;-47
2023/02/19 06:56:26;;;;;;;15.23;7.50;;;;;;;1.79;88.90;99602.14;1749683;82;25662;-46
2023/02/19 06:58:58;;;;;;;13.08;5.83;;;;;;;1.84;88.56;99602.68;1764834;81;25414;-46
2023/02/19 07:01:29;;;;;;;14.47;6.62;;;;;;;1.89;88.60;99605.86;1749885;82;27375;-46
2023/02/19 07:03:58;;;;;;;16.82;8.18;;;;;;;1.92;88.53;99600.00;1764743;81;25602;-46
2023/02/19 07:06:27;;;;;;;19.57;8.10;;;;;;;1.95;88.26;99604.80;1749726;82;25492;-47
2023/02/19 07:08:57;;;;;;;12.90;7.20;;;;;;;1.97;88.15;99611.45;1765024;81;25664;-46
2023/02/19 07:11:33;;;;;;;13.48;6.87;;;;;;;1.98;88.02;99618.94;1749767;81;25622;-46
2023/02/19 07:14:04;;;;;;;17.00;7.03;;;;;;;1.99;87.88;99620.52;1764828;81;27995;-46
2023/02/19 07:16:30;;;;;;;14.33;6.28;;;;;;;2.02;87.82;99621.33;1749652;82;25488;-46
2023/02/19 07:18:59;;;;;;;23.52;9.60;;;;;;;2.04;87.90;99625.85;1764855;81;25559;-47
2023/02/19 07:21:28;;;;;;;;;;;;;;;2.06;87.86;99626.41;1742128;82;25773;-46
2023/02/19 07:23:54;;;;;;;14.63;6.53;;;;;;;2.11;88.07;99628.25;1751937;81;25410;-46
2023/02/19 07:26:23;;;;;;;12.05;5.62;;;;;;;2.12;87.81;99627.19;1751818;81;27349;-47
2023/02/19 07:28:51;;;;;;;32.13;11.60;;;;;;;2.13;87.86;99626.92;1752005;81;25556;-47
2023/02/19 07:31:21;;;;;;;27.00;10.32;;;;;;;2.18;87.84;99632.77;1751822;81;25529;-47
2023/02/19 07:33:50;;;;;;;20.57;9.03;;;;;;;2.19;87.67;99633.05;1751932;81;26326;-47
2023/02/19 07:36:19;;;;;;;19.48;7.40;;;;;;;2.20;87.54;99629.32;1751866;81;25587;-48
2023/02/19 07:38:49;;;;;;;16.25;7.65;;;;;;;2.20;87.52;99628.78;1751922;81;27398;-46
2023/02/19 07:41:15;;;;;;;13.18;7.20;;;;;;;2.22;87.55;99631.97;1751293;81;25388;-46
2023/02/19 07:43:42;;;;;;;20.30;17.55;;;;;;;2.25;87.55;99631.98;1751841;81;25367;-48
2023/02/19 07:46:13;;;;;;;23.07;19.15;;;;;;;2.27;87.43;99635.72;1751770;81;25668;-49
2023/02/19 07:48:43;;;;;;;28.35;25.72;;;;;;;2.31;87.52;99636.22;1751955;81;25609;-48
2023/02/19 07:51:17;;;;;;;;;;;;;;;2.33;87.38;99641.30;1754472;81;27308;-48
2023/02/19 07:53:49;;;;;;;31.68;29.12;;;;;;;2.37;87.53;99641.83;1751915;81;25607;-48
2023/02/19 07:56:18;;;;;;;31.12;28.62;;;;;;;2.41;87.30;99644.20;1751889;81;25636;-48
2023/02/19 07:58:46;;;;;;;51.35;47.48;;;;;;;2.43;87.23;99643.42;1751966;81;26177;-47
2023/02/19 08:01:17;;;;;;;83.87;77.47;;;;;;;2.47;87.20;99643.68;1751838;81;25590;-48
2023/02/19 08:03:45;;;;;;;78.90;72.25;;;;;;;2.50;87.27;99643.11;1723497;83;27389;-48
2023/02/19 08:06:13;;;;;;;81.57;75.80;;;;;;;2.55;87.46;99651.11;1721793;83;27289;-46
2023/02/19 08:08:40;;;;;;;82.10;75.92;;;;;;;2.63;87.40;99647.09;1723459;83;25397;-45
2023/02/19 08:13:53;;;;;;;47.05;43.28;;;;;;;2.70;86.68;99650.81;1723471;83;25366;-46
2023/02/19 08:16:22;;;;;;;72.90;67.42;;;;;;;2.72;86.25;99642.78;1751828;81;29620;-46
2023/02/19 08:18:49;;;;;;;80.95;74.87;;;;;;;2.70;85.85;99655.62;1723531;83;25546;-47
2023/02/19 08:21:17;;;;;;;83.65;77.60;;;;;;;2.72;86.08;99662.02;1756094;80;25632;-47
2023/02/19 08:23:45;;;;;;;85.65;79.22;;;;;;;2.72;86.20;99656.69;1749651;82;25634;-47
2023/02/19 08:26:13;;;;;;;82.78;76.55;;;;;;;2.73;86.07;99657.75;1749724;82;25479;-46
2023/02/19 08:28:41;;;;;;;74.42;69.25;;;;;;;2.75;85.89;99664.16;1749817;82;28072;-48
2023/02/19 08:31:11;;;;;;;81.57;75.55;;;;;;;2.72;85.32;99666.82;1749753;82;25602;-48
2023/02/19 08:33:39;;;;;;;85.03;78.62;;;;;;;2.72;85.51;99666.03;1750017;82;25411;-47
2023/02/19 08:36:09;;;;;;;83.90;77.72;;;;;;;2.74;85.49;99667.89;1750067;82;25608;-50
2023/02/19 08:38:37;;;;;;;84.55;78.22;;;;;;;2.76;85.28;99668.44;1726412;82;25483;-49
2023/02/19 08:41:11;;;;;;;83.52;77.17;;;;;;;2.75;85.33;99668.95;1749814;82;27411;-48
2023/02/19 08:43:40;;;;;;;75.65;70.15;;;;;;;2.78;85.40;99679.09;1749812;82;25622;-48
2023/02/19 08:46:11;;;;;;;59.38;54.95;;;;;;;2.86;85.73;99677.75;1749943;82;25742;-48
2023/02/19 08:48:39;;;;;;;84.32;78.05;;;;;;;2.93;85.45;99668.11;1749868;82;25645;-47
2023/02/19 08:51:10;;;;;;;85.97;79.58;;;;;;;2.94;85.05;99680.38;1749930;82;25641;-48
2023/02/19 08:53:39;;;;;;;82.42;76.70;;;;;;;2.95;84.96;99673.43;1749882;82;27432;-48
2023/02/19 08:56:10;;;;;;;83.25;77.35;;;;;;;2.99;84.91;99681.16;1749837;82;25431;-48
2023/02/19 08:58:39;;;;;;;84.83;78.37;;;;;;;3.03;84.76;99671.27;1749859;82;25421;-48
2023/02/19 09:01:12;;;;;;;83.73;77.63;;;;;;;3.05;84.39;99673.94;1749976;82;25682;-48
2023/02/19 09:03:40;;;;;;;66.77;61.90;;;;;;;3.09;84.63;99668.84;1749885;82;25453;-48
2023/02/19 09:06:16;;;;;;;66.00;60.60;;;;;;;3.13;84.60;99668.03;1749787;82;27335;-47
2023/02/19 09:08:45;;;;;;;13.85;9.00;;;;;;;3.14;84.67;99673.62;1749764;82;27215;-48
2023/02/19 09:11:13;;;;;;;11.35;5.75;;;;;;;3.18;84.19;99674.69;1764891;81;25582;-51
2023/02/19 09:13:40;;;;;;;10.50;6.00;;;;;;;3.19;84.01;99675.48;1749762;82;26423;-50
2023/02/19 09:16:09;;;;;;;7.95;5.53;;;;;;;3.21;83.80;99675.20;1764861;81;25572;-49
2023/02/19 09:18:37;;;;;;;12.73;5.90;;;;;;;3.22;83.60;99676.27;1749920;82;28011;-49
2023/02/19 09:21:06;;;;;;;9.13;5.00;;;;;;;3.21;82.98;99673.32;1764724;81;25675;-47
2023/02/19 09:23:36;;;;;;;8.80;4.10;;;;;;;3.21;83.19;99668.52;1751376;81;25737;-48
2023/02/19 09:26:08;;;;;;;10.43;5.70;;;;;;;3.21;83.51;99673.32;1754895;81;25596;-46
2023/02/19 09:28:38;;;;;;;13.83;5.78;;;;;;;3.27;83.53;99676.76;1751293;81;25416;-48
2023/02/19 09:31:12;;;;;;;13.00;6.00;;;;;;;3.28;83.21;99683.72;1754798;81;27724;-48
2023/02/19 09:33:46;;;;;;;14.03;6.50;;;;;;;3.33;83.19;99681.80;1751139;81;25469;-49
2023/02/19 09:36:15;;;;;;;17.65;8.50;;;;;;;3.42;83.45;99678.56;1754911;81;25665;-49
2023/02/19 09:38:41;;;;;;;11.95;5.62;;;;;;;3.50;82.58;99670.75;1751524;81;25631;-47
2023/02/19 09:41:27;;;;;;;11.18;6.05;;;;;;;3.54;82.46;99662.45;1754977;81;25596;-48
2023/02/19 09:44:02;;;;;;;11.25;5.42;;;;;;;3.60;82.22;99669.89;1750279;81;27552;-47
2023/02/19 09:46:49;;;;;;;9.38;5.75;;;;;;;3.67;82.19;99683.75;1754830;81;25567;-49
2023/02/19 09:49:35;;;;;;;12.28;5.97;;;;;;;3.74;82.20;99680.77;1751436;81;25594;-47
2023/02/19 09:52:07;;;;;;;11.75;5.40;;;;;;;3.75;81.57;99687.73;1754881;81;25600;-48
2023/02/19 09:54:38;;;;;;;11.28;5.60;;;;;;;3.73;81.39;99675.96;1751413;81;25473;-46
2023/02/19 09:57:21;;;;;;;11.38;5.90;;;;;;;3.81;81.60;99677.78;1754856;81;27332;-49
2023/02/19 09:59:53;;;;;;;8.60;4.67;;;;;;;3.91;81.85;99678.49;1751293;81;25580;-49
2023/02/19 10:02:24;;;;;;;11.15;4.97;;;;;;;4.76;82.11;99683.08;1754908;81;25381;-49
2023/02/19 10:04:53;;;;;;;14.95;5.30;;;;;;;5.51;82.02;99682.95;1751377;81;25967;-50
2023/02/19 10:07:28;;;;;;;9.53;4.95;;;;;;;6.26;81.88;99683.19;1754898;81;25400;-49
2023/02/19 10:10:03;;;;;;;11.28;5.30;;;;;;;6.91;81.48;99678.23;1749336;81;27967;-49
2023/02/19 10:12:33;;;;;;;8.95;4.90;;;;;;;7.28;78.85;99674.50;1754518;81;25658;-50
2023/02/19 10:15:18;;;;;;;9.38;4.20;;;;;;;7.54;76.06;99682.02;1751385;81;25410;-48
2023/02/19 10:17:46;;;;;;;8.80;4.80;;;;;;;7.81;76.48;99679.00;1753502;81;25660;-49
2023/02/19 10:20:18;;;;;;;10.40;5.08;;;;;;;8.36;72.99;99677.40;1751422;81;25445;-49
2023/02/19 10:22:47;;;;;;;7.28;4.22;;;;;;;8.56;71.75;99685.55;1754733;81;27407;-48
2023/02/19 10:25:17;;;;;;;8.78;3.85;;;;;;;8.45;69.78;99680.16;1751242;81;25780;-49
2023/02/19 10:27:44;;;;;;;9.83;5.40;;;;;;;8.20;69.34;99681.02;1754764;81;25607;-50
2023/02/19 10:30:17;;;;;;;10.08;4.42;;;;;;;7.89;69.02;99694.44;1751344;81;25562;-51
2023/02/19 10:33:01;;;;;;;7.80;4.67;;;;;;;7.54;69.20;99696.03;1750087;81;25848;-49
2023/02/19 10:35:29;;;;;;;8.43;5.15;;;;;;;7.26;69.19;99692.06;1750648;81;27302;-50
2023/02/19 10:37:58;;;;;;;8.35;4.20;;;;;;;6.97;69.46;99697.77;1754710;81;25549;-50
2023/02/19 10:40:27;;;;;;;9.80;5.05;;;;;;;6.82;69.41;99691.58;1751283;81;25526;-50
2023/02/19 10:42:58;;;;;;;11.48;5.25;;;;;;;6.62;69.66;99692.74;1754950;81;25748;-51
2023/02/19 10:45:47;;;;;;;8.05;4.53;;;;;;;6.51;70.38;99694.83;1751187;81;25626;-50
2023/02/19 10:48:24;;;;;;;6.97;3.40;;;;;;;6.45;70.04;99687.16;1755100;81;28087;-50
2023/02/19 10:51:03;;;;;;;10.80;4.40;;;;;;;6.81;71.23;99705.31;1751325;81;25437;-50
2023/02/19 10:53:51;;;;;;;8.35;3.95;;;;;;;7.55;72.85;99698.98;1754061;81;25647;-53
2023/02/19 10:56:30;;;;;;;10.80;4.95;;;;;;;7.84;69.78;99703.98;1751443;81;25677;-50
2023/02/19 10:59:17;;;;;;;6.90;3.17;;;;;;;7.81;68.11;99704.02;1754983;81;25299;-51
2023/02/19 11:02:03;;;;;;;12.10;4.00;;;;;;;7.68;67.75;99708.92;1741657;81;27977;-48
2023/02/19 11:04:36;;;;;;;7.42;3.58;;;;;;;7.41;67.36;99706.53;1754798;81;25603;-50
2023/02/19 11:07:18;;;;;;;10.15;7.58;;;;;;;7.23;67.85;99701.52;1751220;81;25500;-47
2023/02/19 11:09:55;;;;;;;11.43;4.47;;;;;;;7.05;67.52;99714.55;1754820;81;25671;-48
2023/02/19 11:12:34;;;;;;;10.58;4.45;;;;;;;6.88;67.51;99712.45;1751426;81;25577;-48
2023/02/19 11:15:19;;;;;;;6.60;3.67;;;;;;;6.66;67.66;99705.86;1754977;81;27443;-49
2023/02/19 11:18:23;;;;;;;16.27;6.00;;;;;;;6.52;67.96;99707.19;1751258;81;25674;-47
2023/02/19 11:21:03;;;;;;;8.33;6.50;;;;;;;6.52;68.27;99715.77;1754811;81;25452;-50
2023/02/19 11:23:38;;;;;;;14.55;12.33;;;;;;;6.48;68.49;99704.03;1751215;81;25627;-47
2023/02/19 11:26:17;;;;;;;31.80;29.45;;;;;;;6.38;67.90;99703.66;1754820;81;25641;-49
2023/02/19 11:28:49;;;;;;;13.83;10.53;;;;;;;6.25;67.39;99709.25;1751424;81;30371;-48
2023/02/19 11:31:32;;;;;;;6.05;2.87;;;;;;;6.15;67.12;99713.45;1752307;81;25563;-51
2023/02/19 11:34:19;;;;;;;9.83;5.03;;;;;;;6.00;67.20;99705.09;1751406;82;25393;-50
2023/02/19 11:36:44;;;;;;;7.97;3.50;;;;;;;5.87;67.45;99702.55;1753639;81;25643;-53
2023/02/19 11:39:19;;;;;;;8.48;3.65;;;;;;;5.71;67.70;99708.70;1751374;82;25401;-48
2023/02/19 11:42:18;;;;;;;7.95;6.40;;;;;;;5.61;67.71;99711.53;1753979;81;27341;-51
2023/02/19 11:45:04;;;;;;;11.08;4.50;;;;;;;5.61;68.68;99711.53;1751438;81;25454;-50
2023/02/19 11:47:57;;;;;;;7.83;5.05;;;;;;;5.64;68.08;99728.40;1754855;81;25441;-49
2023/02/19 11:50:53;;;;;;;12.68;5.03;;;;;;;5.42;68.54;99711.52;1714152;81;27729;-49
2023/02/19 11:53:26;;;;;;;7.35;4.78;;;;;;;5.51;69.17;99712.46;1754833;81;25603;-52
2023/02/19 11:56:15;;;;;;;13.43;9.88;;;;;;;5.88;70.96;99720.27;1751388;82;27933;-49
2023/02/19 11:59:24;;;;;;;6.58;3.12;;;;;;;6.43;71.95;99710.84;1754721;81;25379;-51
2023/02/19 12:02:22;;;;;;;5.80;3.00;;;;;;;6.97;71.64;99712.00;1751482;81;25457;-49
2023/02/19 12:05:21;;;;;;;11.63;3.98;;;;;;;7.51;69.25;99720.86;1755039;81;26091;-50
2023/02/19 12:08:22;;;;;;;5.47;3.37;;;;;;;8.12;68.25;99714.62;1751628;81;25583;-54
2023/02/19 12:11:24;;;;;;;43.13;40.43;;;;;;;8.58;67.77;99717.55;1754984;81;29484;-51
2023/02/19 12:14:19;;;;;;;18.92;10.63;;;;;;;8.93;66.67;99717.16;1751420;81;25393;-49
2023/02/19 12:16:55;;;;;;;14.87;7.25;;;;;;;8.71;63.98;99722.06;1754166;81;25560;-51
2023/02/19 12:19:56;;;;;;;13.88;6.08;;;;;;;8.43;63.68;99728.20;1751059;81;25703;-48
2023/02/19 12:22:31;;;;;;;8.38;5.85;;;;;;;8.19;62.98;99736.58;1754451;81;25709;-49
2023/02/19 12:25:12;;;;;;;10.10;3.70;;;;;;;7.97;63.19;99736.02;1726963;83;27339;-48
2023/02/19 12:27:58;;;;;;;13.03;11.73;;;;;;;7.98;63.32;99744.31;1737472;82;25562;-49
2023/02/19 12:30:41;;;;;;;6.05;3.50;;;;;;;7.79;62.54;99745.27;1726422;83;25618;-49